Ranchito, New Mexico
Current Conditions -  °F | °C
As of 7:35 PM on Tuesday 21 Oct 2014 (Local Time) from KSKX Reporting Station
Broken Clouds Broken Clouds  
Wind Chill: 50°   Ceiling: 4000
Heat Index: 50°   Visibility: 10mi
Dew Point: 37°   Wind: 8mph
Humidity: 62%   Direction: 250°WSW
Pressure: 30.15"   Gusts: NA
Location:  36.4227°N, 105.509°W
Report Text: KSKX 220135Z AUTO 25007KT 10SM BKN040 BKN080 10/03 A3015 RMK AO1
Loading
Personal Weather Stations






























Interactive Weather Map
Tropical Storm Tracking
New forecast layout! Learn more

10-Day Weather Forecast

Advertisements
Track Severe Weather on mobile